sensor_id;sensor_type;location;lat;lon;timestamp;pressure;altitude;pressure_sealevel;temperature;humidity
57038;BME280;59942;49.304;8.256;2023-08-12T00:02:25;100446.00;;;23.20;63.22
57038;BME280;59942;49.304;8.256;2023-08-12T00:04:52;100474.28;;;23.20;64.29
57038;BME280;59942;49.304;8.256;2023-08-12T00:07:18;100512.00;;;23.50;62.95
57038;BME280;59942;49.304;8.256;2023-08-12T00:09:44;100483.63;;;23.42;62.87
57038;BME280;59942;49.304;8.256;2023-08-12T00:12:11;100473.56;;;23.46;59.67
57038;BME280;59942;49.304;8.256;2023-08-12T00:14:37;100506.53;;;23.89;60.05
57038;BME280;59942;49.304;8.256;2023-08-12T00:17:04;100471.75;;;23.74;59.22
57038;BME280;59942;49.304;8.256;2023-08-12T00:19:30;100483.84;;;23.86;58.52
57038;BME280;59942;49.304;8.256;2023-08-12T00:21:57;100508.50;;;23.87;60.73
57038;BME280;59942;49.304;8.256;2023-08-12T00:24:23;100503.63;;;23.82;60.13
57038;BME280;59942;49.304;8.256;2023-08-12T00:26:50;100452.75;;;23.61;59.99
57038;BME280;59942;49.304;8.256;2023-08-12T00:29:16;100497.84;;;23.97;59.70
57038;BME280;59942;49.304;8.256;2023-08-12T00:31:43;100489.75;;;23.98;58.93
57038;BME280;59942;49.304;8.256;2023-08-12T00:34:10;100469.94;;;23.74;60.88
57038;BME280;59942;49.304;8.256;2023-08-12T00:36:36;100452.47;;;23.64;61.18
57038;BME280;59942;49.304;8.256;2023-08-12T00:39:03;100473.44;;;23.75;59.59
57038;BME280;59942;49.304;8.256;2023-08-12T00:41:30;100470.72;;;23.85;59.20
57038;BME280;59942;49.304;8.256;2023-08-12T00:43:57;100464.88;;;23.81;59.13
57038;BME280;59942;49.304;8.256;2023-08-12T00:46:23;100481.19;;;23.86;63.35
57038;BME280;59942;49.304;8.256;2023-08-12T00:48:51;100462.53;;;23.88;59.81
57038;BME280;59942;49.304;8.256;2023-08-12T00:51:17;100483.25;;;23.92;58.84
57038;BME280;59942;49.304;8.256;2023-08-12T00:53:46;100445.28;;;23.74;59.18
57038;BME280;59942;49.304;8.256;2023-08-12T00:56:13;100462.78;;;23.85;59.05
57038;BME280;59942;49.304;8.256;2023-08-12T00:58:40;100480.91;;;23.89;59.16
57038;BME280;59942;49.304;8.256;2023-08-12T01:01:07;100437.09;;;23.67;59.81
57038;BME280;59942;49.304;8.256;2023-08-12T01:03:34;100433.25;;;23.62;59.59
57038;BME280;59942;49.304;8.256;2023-08-12T01:06:01;100474.38;;;23.56;66.03
57038;BME280;59942;49.304;8.256;2023-08-12T01:08:31;100479.72;;;23.18;69.13
57038;BME280;59942;49.304;8.256;2023-08-12T01:11:03;100480.31;;;22.93;70.31
57038;BME280;59942;49.304;8.256;2023-08-12T01:16:05;100489.00;;;22.55;73.12
57038;BME280;59942;49.304;8.256;2023-08-12T01:18:33;100447.81;;;22.72;65.93
57038;BME280;59942;49.304;8.256;2023-08-12T01:21:01;100482.88;;;23.22;66.90
57038;BME280;59942;49.304;8.256;2023-08-12T01:23:30;100479.72;;;23.18;64.70
57038;BME280;59942;49.304;8.256;2023-08-12T01:25:57;100475.09;;;23.20;64.32
57038;BME280;59942;49.304;8.256;2023-08-12T01:28:23;100437.97;;;22.55;66.49
57038;BME280;59942;49.304;8.256;2023-08-12T01:30:56;100469.94;;;23.09;63.67
57038;BME280;59942;49.304;8.256;2023-08-12T01:33:27;100475.38;;;23.17;69.16
57038;BME280;59942;49.304;8.256;2023-08-12T01:36:14;100481.00;;;22.95;71.22
57038;BME280;59942;49.304;8.256;2023-08-12T01:38:43;100476.03;;;22.13;76.15
57038;BME280;59942;49.304;8.256;2023-08-12T01:41:11;100473.03;;;22.37;68.79
57038;BME280;59942;49.304;8.256;2023-08-12T01:43:40;100436.28;;;22.54;65.59
57038;BME280;59942;49.304;8.256;2023-08-12T01:46:07;100471.34;;;22.46;73.27
57038;BME280;59942;49.304;8.256;2023-08-12T01:48:34;100466.59;;;22.69;67.52
57038;BME280;59942;49.304;8.256;2023-08-12T01:51:00;100397.38;;;22.46;64.80
57038;BME280;59942;49.304;8.256;2023-08-12T01:53:27;100478.22;;;22.86;70.45
57038;BME280;59942;49.304;8.256;2023-08-12T01:55:53;100457.72;;;22.61;67.54
57038;BME280;59942;49.304;8.256;2023-08-12T01:58:20;100477.66;;;23.02;65.29
57038;BME280;59942;49.304;8.256;2023-08-12T02:00:47;100475.69;;;23.14;63.69
57038;BME280;59942;49.304;8.256;2023-08-12T02:03:13;100395.19;;;22.79;63.58
57038;BME280;59942;49.304;8.256;2023-08-12T02:05:40;100465.31;;;23.31;62.54
57038;BME280;59942;49.304;8.256;2023-08-12T02:08:07;100461.25;;;23.36;64.33
57038;BME280;59942;49.304;8.256;2023-08-12T02:10:34;100469.31;;;23.35;62.35
57038;BME280;59942;49.304;8.256;2023-08-12T02:13:01;100462.94;;;23.28;64.41
57038;BME280;59942;49.304;8.256;2023-08-12T02:15:29;100432.09;;;23.09;64.83
57038;BME280;59942;49.304;8.256;2023-08-12T02:17:55;100461.75;;;23.12;64.40
57038;BME280;59942;49.304;8.256;2023-08-12T02:20:22;100420.19;;;22.95;63.62
57038;BME280;59942;49.304;8.256;2023-08-12T02:22:48;100434.75;;;22.12;75.13
57038;BME280;59942;49.304;8.256;2023-08-12T02:25:15;100470.94;;;22.41;69.83
57038;BME280;59942;49.304;8.256;2023-08-12T02:27:41;100434.63;;;22.04;74.45
57038;BME280;59942;49.304;8.256;2023-08-12T02:30:09;100439.06;;;22.13;74.10
57038;BME280;59942;49.304;8.256;2023-08-12T02:32:35;100488.59;;;22.41;74.14
57038;BME280;59942;49.304;8.256;2023-08-12T02:35:02;100485.69;;;21.74;78.58
57038;BME280;59942;49.304;8.256;2023-08-12T02:37:29;100467.31;;;21.53;77.80
57038;BME280;59942;49.304;8.256;2023-08-12T02:39:55;100458.13;;;21.47;77.26
57038;BME280;59942;49.304;8.256;2023-08-12T02:42:22;100472.69;;;21.10;82.56
57038;BME280;59942;49.304;8.256;2023-08-12T02:44:48;100471.38;;;20.62;83.75
57038;BME280;59942;49.304;8.256;2023-08-12T02:47:15;100467.84;;;21.46;80.58
57038;BME280;59942;49.304;8.256;2023-08-12T02:49:41;100469.59;;;21.36;79.02
57038;BME280;59942;49.304;8.256;2023-08-12T02:52:10;100408.16;;;21.14;76.17
57038;BME280;59942;49.304;8.256;2023-08-12T02:54:36;100461.44;;;21.49;79.48
57038;BME280;59942;49.304;8.256;2023-08-12T02:57:03;100460.97;;;21.34;76.21
57038;BME280;59942;49.304;8.256;2023-08-12T02:59:29;100462.94;;;21.32;80.86
57038;BME280;59942;49.304;8.256;2023-08-12T03:01:56;100462.16;;;22.01;73.85
57038;BME280;59942;49.304;8.256;2023-08-12T03:04:22;100417.81;;;20.52;85.12
57038;BME280;59942;49.304;8.256;2023-08-12T03:06:49;100449.19;;;20.97;78.95
57038;BME280;59942;49.304;8.256;2023-08-12T03:09:15;100453.75;;;21.36;78.18
57038;BME280;59942;49.304;8.256;2023-08-12T03:11:44;100410.22;;;20.59;84.93
57038;BME280;59942;49.304;8.256;2023-08-12T03:14:11;100423.19;;;20.93;83.83
57038;BME280;59942;49.304;8.256;2023-08-12T03:16:38;100364.63;;;19.95;88.02
57038;BME280;59942;49.304;8.256;2023-08-12T03:19:04;100451.34;;;20.50;88.37
57038;BME280;59942;49.304;8.256;2023-08-12T03:21:31;100439.19;;;20.38;88.92
57038;BME280;59942;49.304;8.256;2023-08-12T03:23:57;100388.47;;;19.82;92.51
57038;BME280;59942;49.304;8.256;2023-08-12T03:26:24;100423.91;;;20.32;88.63
57038;BME280;59942;49.304;8.256;2023-08-12T03:28:50;100417.41;;;20.15;91.43
57038;BME280;59942;49.304;8.256;2023-08-12T03:31:17;100416.47;;;20.37;89.99
57038;BME280;59942;49.304;8.256;2023-08-12T03:33:44;100406.47;;;21.04;80.45
57038;BME280;59942;49.304;8.256;2023-08-12T03:36:10;100323.94;;;21.03;75.75
57038;BME280;59942;49.304;8.256;2023-08-12T03:38:37;100378.69;;;21.50;73.82
57038;BME280;59942;49.304;8.256;2023-08-12T03:41:03;100379.72;;;21.59;74.65
57038;BME280;59942;49.304;8.256;2023-08-12T03:43:30;100407.25;;;21.85;72.29
57038;BME280;59942;49.304;8.256;2023-08-12T03:45:58;100431.59;;;22.09;76.61
57038;BME280;59942;49.304;8.256;2023-08-12T03:48:25;100438.59;;;21.59;80.80
57038;BME280;59942;49.304;8.256;2023-08-12T03:50:54;100448.59;;;21.56;81.33
57038;BME280;59942;49.304;8.256;2023-08-12T03:53:21;100447.13;;;22.02;72.11
57038;BME280;59942;49.304;8.256;2023-08-12T03:55:47;100448.66;;;22.05;75.40
57038;BME280;59942;49.304;8.256;2023-08-12T03:58:14;100415.41;;;20.91;80.67
57038;BME280;59942;49.304;8.256;2023-08-12T04:00:41;100451.41;;;21.83;72.89
57038;BME280;59942;49.304;8.256;2023-08-12T04:03:09;100443.09;;;21.78;72.93
57038;BME280;59942;49.304;8.256;2023-08-12T04:05:36;100457.06;;;21.69;76.20
57038;BME280;59942;49.304;8.256;2023-08-12T04:08:02;100415.13;;;20.85;80.49
57038;BME280;59942;49.304;8.256;2023-08-12T04:10:30;100446.47;;;21.49;75.25
57038;BME280;59942;49.304;8.256;2023-08-12T04:12:56;100456.13;;;21.70;72.70
57038;BME280;59942;49.304;8.256;2023-08-12T04:15:23;100443.34;;;21.85;70.79
57038;BME280;59942;49.304;8.256;2023-08-12T04:17:49;100474.53;;;22.30;68.39
57038;BME280;59942;49.304;8.256;2023-08-12T04:20:16;100493.75;;;22.42;74.15
57038;BME280;59942;49.304;8.256;2023-08-12T04:22:42;100479.94;;;22.29;73.56
57038;BME280;59942;49.304;8.256;2023-08-12T04:25:09;100435.75;;;21.41;76.53
57038;BME280;59942;49.304;8.256;2023-08-12T04:27:35;100474.66;;;22.09;71.78
57038;BME280;59942;49.304;8.256;2023-08-12T04:30:02;100477.72;;;22.05;71.31
57038;BME280;59942;49.304;8.256;2023-08-12T04:32:29;100479.66;;;22.22;71.11
57038;BME280;59942;49.304;8.256;2023-08-12T04:34:55;100455.31;;;21.89;71.58
57038;BME280;59942;49.304;8.256;2023-08-12T04:37:22;100476.03;;;21.84;74.79
57038;BME280;59942;49.304;8.256;2023-08-12T04:39:50;100428.63;;;21.73;75.24
57038;BME280;59942;49.304;8.256;2023-08-12T04:42:17;100470.34;;;22.18;72.48
57038;BME280;59942;49.304;8.256;2023-08-12T04:44:43;100437.28;;;21.94;74.95
57038;BME280;59942;49.304;8.256;2023-08-12T04:47:09;100465.34;;;22.05;74.80
57038;BME280;59942;49.304;8.256;2023-08-12T04:49:37;100461.41;;;21.90;77.42
57038;BME280;59942;49.304;8.256;2023-08-12T04:52:03;100477.22;;;21.70;79.02
57038;BME280;59942;49.304;8.256;2023-08-12T04:54:30;100460.16;;;21.33;81.31
57038;BME280;59942;49.304;8.256;2023-08-12T04:56:57;100458.31;;;21.65;75.18
57038;BME280;59942;49.304;8.256;2023-08-12T04:59:23;100455.06;;;22.02;71.00
57038;BME280;59942;49.304;8.256;2023-08-12T05:01:50;100454.06;;;22.23;73.62
57038;BME280;59942;49.304;8.256;2023-08-12T05:04:29;100409.31;;;21.82;76.63
57038;BME280;59942;49.304;8.256;2023-08-12T05:06:56;100450.16;;;21.88;76.85
57038;BME280;59942;49.304;8.256;2023-08-12T05:09:22;100413.34;;;21.86;71.88
57038;BME280;59942;49.304;8.256;2023-08-12T05:11:49;100453.69;;;22.37;73.30
57038;BME280;59942;49.304;8.256;2023-08-12T05:14:16;100449.38;;;22.26;76.46
57038;BME280;59942;49.304;8.256;2023-08-12T05:16:42;100451.44;;;22.23;70.33
57038;BME280;59942;49.304;8.256;2023-08-12T05:19:09;100363.91;;;21.98;70.92
57038;BME280;59942;49.304;8.256;2023-08-12T05:21:35;100449.06;;;22.59;68.10
57038;BME280;59942;49.304;8.256;2023-08-12T05:24:02;100447.53;;;22.66;69.93
57038;BME280;59942;49.304;8.256;2023-08-12T05:26:28;100407.09;;;22.26;72.64
57038;BME280;59942;49.304;8.256;2023-08-12T05:28:55;100407.94;;;22.27;73.41
57038;BME280;59942;49.304;8.256;2023-08-12T05:31:21;100447.81;;;22.53;73.09
57038;BME280;59942;49.304;8.256;2023-08-12T05:33:48;100442.69;;;22.12;75.43
57038;BME280;59942;49.304;8.256;2023-08-12T05:36:15;100442.28;;;21.97;75.41
57038;BME280;59942;49.304;8.256;2023-08-12T05:38:41;100412.78;;;21.92;71.79
57038;BME280;59942;49.304;8.256;2023-08-12T05:41:08;100408.09;;;22.06;69.22
57038;BME280;59942;49.304;8.256;2023-08-12T05:43:34;100451.72;;;21.90;77.76
57038;BME280;59942;49.304;8.256;2023-08-12T05:46:01;100453.22;;;21.73;79.60
57038;BME280;59942;49.304;8.256;2023-08-12T05:48:28;100450.59;;;22.02;78.18
57038;BME280;59942;49.304;8.256;2023-08-12T05:50:54;100444.91;;;22.27;76.09
57038;BME280;59942;49.304;8.256;2023-08-12T05:53:21;100457.56;;;22.33;74.25
57038;BME280;59942;49.304;8.256;2023-08-12T05:55:48;100463.56;;;22.35;75.02
57038;BME280;59942;49.304;8.256;2023-08-12T05:58:14;100469.97;;;22.52;71.74
57038;BME280;59942;49.304;8.256;2023-08-12T06:00:41;100456.59;;;22.53;73.60
57038;BME280;59942;49.304;8.256;2023-08-12T06:03:12;100479.25;;;22.56;73.62
57038;BME280;59942;49.304;8.256;2023-08-12T06:05:40;100465.78;;;22.59;71.06
57038;BME280;59942;49.304;8.256;2023-08-12T06:08:07;100477.41;;;22.76;71.45
57038;BME280;59942;49.304;8.256;2023-08-12T06:10:33;100438.34;;;22.70;71.42
57038;BME280;59942;49.304;8.256;2023-08-12T06:13:03;100461.97;;;22.81;72.06
57038;BME280;59942;49.304;8.256;2023-08-12T06:15:30;100426.97;;;22.60;71.88
57038;BME280;59942;49.304;8.256;2023-08-12T06:17:57;100428.69;;;22.88;69.28
57038;BME280;59942;49.304;8.256;2023-08-12T06:20:24;100460.34;;;23.08;72.17
57038;BME280;59942;49.304;8.256;2023-08-12T06:22:51;100454.13;;;23.37;67.83
57038;BME280;59942;49.304;8.256;2023-08-12T06:25:18;100412.81;;;23.36;67.15
57038;BME280;59942;49.304;8.256;2023-08-12T06:27:46;100435.56;;;23.47;66.67
57038;BME280;59942;49.304;8.256;2023-08-12T06:30:14;100469.16;;;23.64;68.86
57038;BME280;59942;49.304;8.256;2023-08-12T06:32:40;100470.47;;;23.88;66.66
57038;BME280;59942;49.304;8.256;2023-08-12T06:35:08;100472.81;;;23.91;66.47
57038;BME280;59942;49.304;8.256;2023-08-12T06:37:34;100465.91;;;23.52;70.40
57038;BME280;59942;49.304;8.256;2023-08-12T06:40:01;100471.84;;;23.27;72.01
57038;BME280;59942;49.304;8.256;2023-08-12T06:42:27;100447.72;;;23.02;72.65
57038;BME280;59942;49.304;8.256;2023-08-12T06:44:56;100475.03;;;23.40;69.81
57038;BME280;59942;49.304;8.256;2023-08-12T06:47:22;100465.84;;;23.34;72.46
57038;BME280;59942;49.304;8.256;2023-08-12T06:49:49;100474.38;;;23.56;70.89
57038;BME280;59942;49.304;8.256;2023-08-12T06:52:16;100468.97;;;23.75;68.81
57038;BME280;59942;49.304;8.256;2023-08-12T06:54:42;100467.13;;;23.58;70.22
57038;BME280;59942;49.304;8.256;2023-08-12T06:57:09;100473.50;;;23.83;68.52
57038;BME280;59942;49.304;8.256;2023-08-12T06:59:38;100434.59;;;23.48;69.36
57038;BME280;59942;49.304;8.256;2023-08-12T07:02:06;100469.88;;;23.66;70.01
57038;BME280;59942;49.304;8.256;2023-08-12T07:04:33;100471.63;;;23.75;70.61
57038;BME280;59942;49.304;8.256;2023-08-12T07:06:59;100461.66;;;23.41;72.07
57038;BME280;59942;49.304;8.256;2023-08-12T07:09:26;100454.97;;;23.65;70.74
57038;BME280;59942;49.304;8.256;2023-08-12T07:11:52;100443.78;;;23.99;68.29
57038;BME280;59942;49.304;8.256;2023-08-12T07:14:19;100465.72;;;23.82;69.75
57038;BME280;59942;49.304;8.256;2023-08-12T07:16:45;100455.34;;;23.98;68.63
57038;BME280;59942;49.304;8.256;2023-08-12T07:19:12;100462.66;;;24.04;69.48
57038;BME280;59942;49.304;8.256;2023-08-12T07:21:42;100459.88;;;24.24;68.33
57038;BME280;59942;49.304;8.256;2023-08-12T07:24:08;100415.97;;;24.03;67.88
57038;BME280;59942;49.304;8.256;2023-08-12T07:26:35;100468.78;;;24.05;69.27
57038;BME280;59942;49.304;8.256;2023-08-12T07:29:01;100441.91;;;24.36;66.28
57038;BME280;59942;49.304;8.256;2023-08-12T07:31:28;100455.75;;;24.66;66.69
57038;BME280;59942;49.304;8.256;2023-08-12T07:33:55;100459.00;;;24.59;66.49
57038;BME280;59942;49.304;8.256;2023-08-12T07:36:21;100456.50;;;23.40;71.10
57038;BME280;59942;49.304;8.256;2023-08-12T07:38:48;100412.56;;;23.93;68.33
57038;BME280;59942;49.304;8.256;2023-08-12T07:41:15;100410.84;;;24.46;66.46
57038;BME280;59942;49.304;8.256;2023-08-12T07:43:41;100421.19;;;25.10;63.73
57038;BME280;59942;49.304;8.256;2023-08-12T07:46:08;100384.75;;;24.86;64.54
57038;BME280;59942;49.304;8.256;2023-08-12T07:48:35;100439.00;;;25.85;61.58
57038;BME280;59942;49.304;8.256;2023-08-12T07:51:03;100455.69;;;25.44;63.51
57038;BME280;59942;49.304;8.256;2023-08-12T07:53:30;100451.34;;;26.03;61.38
57038;BME280;59942;49.304;8.256;2023-08-12T07:55:56;100451.34;;;26.35;60.09
57038;BME280;59942;49.304;8.256;2023-08-12T07:58:23;100448.66;;;26.85;59.10
57038;BME280;59942;49.304;8.256;2023-08-12T08:00:52;100457.31;;;26.71;60.50
57038;BME280;59942;49.304;8.256;2023-08-12T08:03:20;100455.53;;;26.38;61.20
57038;BME280;59942;49.304;8.256;2023-08-12T08:05:46;100447.13;;;25.67;62.49
57038;BME280;59942;49.304;8.256;2023-08-12T08:08:13;100405.72;;;24.26;66.55
57038;BME280;59942;49.304;8.256;2023-08-12T08:10:40;100456.00;;;25.41;63.93
57038;BME280;59942;49.304;8.256;2023-08-12T08:13:06;100415.81;;;26.20;60.61
57038;BME280;59942;49.304;8.256;2023-08-12T08:15:33;100460.00;;;26.29;62.60
57038;BME280;59942;49.304;8.256;2023-08-12T08:17:59;100419.63;;;26.42;61.83
57038;BME280;59942;49.304;8.256;2023-08-12T08:20:28;100469.63;;;25.12;63.84
57038;BME280;59942;49.304;8.256;2023-08-12T08:22:54;100475.63;;;26.16;62.26
57038;BME280;59942;49.304;8.256;2023-08-12T08:25:21;100444.28;;;27.48;59.50
57038;BME280;59942;49.304;8.256;2023-08-12T08:27:48;100449.84;;;26.74;59.49
57038;BME280;59942;49.304;8.256;2023-08-12T08:30:15;100458.47;;;26.76;60.04
57038;BME280;59942;49.304;8.256;2023-08-12T08:32:41;100472.59;;;26.93;60.81
57038;BME280;59942;49.304;8.256;2023-08-12T08:35:08;100461.00;;;27.65;59.23
57038;BME280;59942;49.304;8.256;2023-08-12T08:37:34;100451.41;;;27.56;56.74
57038;BME280;59942;49.304;8.256;2023-08-12T08:40:01;100415.19;;;27.70;58.15
57038;BME280;59942;49.304;8.256;2023-08-12T08:42:27;100450.31;;;27.97;57.40
57038;BME280;59942;49.304;8.256;2023-08-12T08:45:00;100434.38;;;28.35;56.90
57038;BME280;59942;49.304;8.256;2023-08-12T08:47:27;100431.72;;;27.65;57.75
57038;BME280;59942;49.304;8.256;2023-08-12T08:49:57;100405.53;;;28.53;56.11
57038;BME280;59942;49.304;8.256;2023-08-12T08:52:25;100420.88;;;27.90;58.22
57038;BME280;59942;49.304;8.256;2023-08-12T08:54:52;100393.88;;;27.47;54.34
57038;BME280;59942;49.304;8.256;2023-08-12T08:57:19;100431.66;;;28.43;56.09
57038;BME280;59942;49.304;8.256;2023-08-12T08:59:52;100429.69;;;27.67;55.22
57038;BME280;59942;49.304;8.256;2023-08-12T09:02:22;100435.38;;;27.33;55.99
57038;BME280;59942;49.304;8.256;2023-08-12T09:04:49;100434.94;;;28.07;54.38
57038;BME280;59942;49.304;8.256;2023-08-12T09:07:17;100444.56;;;28.84;55.14
57038;BME280;59942;49.304;8.256;2023-08-12T09:09:46;100446.78;;;28.42;54.47
57038;BME280;59942;49.304;8.256;2023-08-12T09:12:16;100431.63;;;27.11;55.24
57038;BME280;59942;49.304;8.256;2023-08-12T09:14:43;100430.00;;;27.96;57.96
57038;BME280;59942;49.304;8.256;2023-08-12T09:17:10;100443.50;;;28.93;52.94
57038;BME280;59942;49.304;8.256;2023-08-12T09:19:37;100407.19;;;28.54;53.10
57038;BME280;59942;49.304;8.256;2023-08-12T09:22:04;100434.16;;;29.86;48.46
57038;BME280;59942;49.304;8.256;2023-08-12T09:24:31;100444.25;;;30.40;48.02
57038;BME280;59942;49.304;8.256;2023-08-12T09:26:58;100427.88;;;29.78;48.91
57038;BME280;59942;49.304;8.256;2023-08-12T09:29:34;100434.97;;;30.36;49.92
57038;BME280;59942;49.304;8.256;2023-08-12T09:32:11;100426.00;;;28.00;54.35
57038;BME280;59942;49.304;8.256;2023-08-12T09:34:50;100423.88;;;29.31;53.71
57038;BME280;59942;49.304;8.256;2023-08-12T09:37:18;100436.13;;;29.62;50.62
57038;BME280;59942;49.304;8.256;2023-08-12T09:39:46;100433.91;;;30.52;51.38
57038;BME280;59942;49.304;8.256;2023-08-12T09:42:14;100397.41;;;30.16;51.69
57038;BME280;59942;49.304;8.256;2023-08-12T09:44:42;100427.09;;;30.28;51.06
57038;BME280;59942;49.304;8.256;2023-08-12T09:47:08;100440.06;;;28.32;54.21
57038;BME280;59942;49.304;8.256;2023-08-12T09:49:36;100434.28;;;29.11;51.82
57038;BME280;59942;49.304;8.256;2023-08-12T09:52:04;100437.19;;;29.46;51.21
57038;BME280;59942;49.304;8.256;2023-08-12T09:54:32;100434.69;;;29.44;53.13
57038;BME280;59942;49.304;8.256;2023-08-12T09:57:00;100416.91;;;28.70;52.34
57038;BME280;59942;49.304;8.256;2023-08-12T09:59:31;100422.41;;;28.69;55.44
57038;BME280;59942;49.304;8.256;2023-08-12T10:01:59;100433.91;;;29.66;52.99
57038;BME280;59942;49.304;8.256;2023-08-12T10:04:29;100397.16;;;29.31;51.57
57038;BME280;59942;49.304;8.256;2023-08-12T10:06:56;100440.63;;;28.95;52.06
57038;BME280;59942;49.304;8.256;2023-08-12T10:09:23;100445.97;;;28.95;52.37
57038;BME280;59942;49.304;8.256;2023-08-12T10:11:52;100448.69;;;29.47;53.20
57038;BME280;59942;49.304;8.256;2023-08-12T10:14:19;100447.19;;;29.59;53.30
57038;BME280;59942;49.304;8.256;2023-08-12T10:16:46;100439.00;;;30.82;48.90
57038;BME280;59942;49.304;8.256;2023-08-12T10:19:15;100436.47;;;31.50;48.25
57038;BME280;59942;49.304;8.256;2023-08-12T10:21:43;100427.66;;;29.95;50.57
57038;BME280;59942;49.304;8.256;2023-08-12T10:24:11;100399.88;;;29.53;53.32
57038;BME280;59942;49.304;8.256;2023-08-12T10:26:39;100425.59;;;31.10;48.69
57038;BME280;59942;49.304;8.256;2023-08-12T10:29:06;100425.94;;;30.37;51.19
57038;BME280;59942;49.304;8.256;2023-08-12T10:31:33;100414.91;;;30.75;51.00
57038;BME280;59942;49.304;8.256;2023-08-12T10:33:59;100358.59;;;30.55;50.91
57038;BME280;59942;49.304;8.256;2023-08-12T10:36:27;100404.44;;;31.29;48.67
57038;BME280;59942;49.304;8.256;2023-08-12T10:38:53;100406.25;;;31.15;49.54
57038;BME280;59942;49.304;8.256;2023-08-12T10:41:22;100402.09;;;31.06;49.38
57038;BME280;59942;49.304;8.256;2023-08-12T10:46:31;100403.00;;;30.50;50.42
57038;BME280;59942;49.304;8.256;2023-08-12T10:54:35;100436.97;;;28.96;54.88
57038;BME280;59942;49.304;8.256;2023-08-12T11:02:32;100451.13;;;27.43;66.56
57038;BME280;59942;49.304;8.256;2023-08-12T11:05:09;100418.84;;;27.69;68.98
57038;BME280;59942;49.304;8.256;2023-08-12T11:07:45;100454.03;;;26.35;75.44
57038;BME280;59942;49.304;8.256;2023-08-12T11:10:14;100476.28;;;26.18;73.92
57038;BME280;59942;49.304;8.256;2023-08-12T11:12:47;100444.72;;;25.47;72.66
57038;BME280;59942;49.304;8.256;2023-08-12T11:15:15;100479.59;;;25.53;76.89
57038;BME280;59942;49.304;8.256;2023-08-12T11:17:42;100533.56;;;26.12;72.23
57038;BME280;59942;49.304;8.256;2023-08-12T11:20:10;100520.19;;;25.45;76.11
57038;BME280;59942;49.304;8.256;2023-08-12T11:22:39;100525.44;;;26.22;76.43
57038;BME280;59942;49.304;8.256;2023-08-12T11:25:08;100511.50;;;26.37;73.80
57038;BME280;59942;49.304;8.256;2023-08-12T11:27:43;100476.09;;;26.11;73.44
57038;BME280;59942;49.304;8.256;2023-08-12T11:30:11;100427.88;;;22.88;85.68
57038;BME280;59942;49.304;8.256;2023-08-12T11:32:38;100475.78;;;23.78;84.82
57038;BME280;59942;49.304;8.256;2023-08-12T11:35:07;100470.84;;;23.37;86.99
57038;BME280;59942;49.304;8.256;2023-08-12T11:37:41;100468.13;;;24.83;81.49
57038;BME280;59942;49.304;8.256;2023-08-12T11:40:12;100456.91;;;25.58;77.28
57038;BME280;59942;49.304;8.256;2023-08-12T11:42:43;100465.66;;;24.64;81.93
57038;BME280;59942;49.304;8.256;2023-08-12T11:45:10;100438.06;;;25.01;77.99
57038;BME280;59942;49.304;8.256;2023-08-12T11:47:40;100492.94;;;24.02;83.12
57038;BME280;59942;49.304;8.256;2023-08-12T11:50:09;100438.84;;;23.31;88.74
57038;BME280;59942;49.304;8.256;2023-08-12T11:55:04;100439.53;;;22.95;96.40
57038;BME280;59942;49.304;8.256;2023-08-12T11:57:32;100476.47;;;24.52;85.62
57038;BME280;59942;49.304;8.256;2023-08-12T12:00:03;100466.97;;;24.23;89.03
57038;BME280;59942;49.304;8.256;2023-08-12T12:02:36;100472.34;;;23.12;95.98
57038;BME280;59942;49.304;8.256;2023-08-12T12:05:08;100475.06;;;24.22;86.87
57038;BME280;59942;49.304;8.256;2023-08-12T12:07:35;100436.72;;;24.08;87.70
57038;BME280;59942;49.304;8.256;2023-08-12T12:10:03;100451.63;;;25.32;81.67
57038;BME280;59942;49.304;8.256;2023-08-12T12:12:29;100449.56;;;23.85;89.85
57038;BME280;59942;49.304;8.256;2023-08-12T12:14:56;100448.91;;;23.27;99.42
57038;BME280;59942;49.304;8.256;2023-08-12T12:17:23;100392.50;;;23.72;92.07
57038;BME280;59942;49.304;8.256;2023-08-12T12:20:00;100450.88;;;25.13;84.76
57038;BME280;59942;49.304;8.256;2023-08-12T12:22:31;100430.00;;;24.14;89.32
57038;BME280;59942;49.304;8.256;2023-08-12T12:25:00;100456.06;;;24.26;91.64
57038;BME280;59942;49.304;8.256;2023-08-12T12:27:27;100450.50;;;25.35;83.62
57038;BME280;59942;49.304;8.256;2023-08-12T12:29:56;100452.09;;;23.76;89.73
57038;BME280;59942;49.304;8.256;2023-08-12T12:32:23;100458.03;;;24.87;86.43
57038;BME280;59942;49.304;8.256;2023-08-12T12:34:49;100427.97;;;23.62;93.02
57038;BME280;59942;49.304;8.256;2023-08-12T12:37:17;100448.66;;;23.94;92.11
57038;BME280;59942;49.304;8.256;2023-08-12T12:39:44;100444.28;;;23.57;94.86
57038;BME280;59942;49.304;8.256;2023-08-12T12:42:10;100452.97;;;24.31;90.71
57038;BME280;59942;49.304;8.256;2023-08-12T12:44:38;100421.84;;;23.79;92.74
57038;BME280;59942;49.304;8.256;2023-08-12T12:47:05;100379.34;;;25.46;89.74
57038;BME280;59942;49.304;8.256;2023-08-12T12:49:32;100444.22;;;25.09;91.40
57038;BME280;59942;49.304;8.256;2023-08-12T12:51:58;100453.69;;;26.22;87.33
57038;BME280;59942;49.304;8.256;2023-08-12T12:54:25;100459.16;;;26.12;82.99
57038;BME280;59942;49.304;8.256;2023-08-12T12:56:51;100463.66;;;26.69;81.77
57038;BME280;59942;49.304;8.256;2023-08-12T12:59:18;100466.47;;;26.51;84.89
57038;BME280;59942;49.304;8.256;2023-08-12T13:01:45;100436.41;;;26.59;79.99
57038;BME280;59942;49.304;8.256;2023-08-12T13:04:11;100469.75;;;26.95;74.88
57038;BME280;59942;49.304;8.256;2023-08-12T13:06:38;100441.16;;;26.97;77.98
57038;BME280;59942;49.304;8.256;2023-08-12T13:09:05;100477.53;;;27.13;72.56
57038;BME280;59942;49.304;8.256;2023-08-12T13:11:33;100432.88;;;26.59;74.32